createdAt,value
2019-03-22T00:00:32.986Z,9.05
2019-03-22T00:01:38.461Z,10.00
2019-03-22T00:02:44.117Z,9.23
2019-03-22T00:03:49.685Z,9.15
2019-03-22T00:04:55.217Z,9.15
2019-03-22T00:06:02.458Z,8.75
2019-03-22T00:07:07.855Z,9.90
2019-03-22T00:08:13.346Z,8.88
2019-03-22T00:09:20.593Z,8.73
2019-03-22T00:10:26.021Z,8.88
2019-03-22T00:11:31.586Z,9.35
2019-03-22T00:12:38.533Z,9.20
2019-03-22T00:13:44.147Z,9.30
2019-03-22T00:14:50.170Z,8.93
2019-03-22T00:15:58.338Z,9.13
2019-03-22T00:17:06.353Z,9.63
2019-03-22T00:18:12.779Z,8.53
2019-03-22T00:19:20.437Z,10.32
2019-03-22T00:20:26.858Z,9.10
2019-03-22T00:21:33.057Z,8.80
2019-03-22T00:22:39.158Z,8.98
2019-03-22T00:23:45.872Z,9.43
2019-03-22T00:24:52.746Z,8.93
2019-03-22T00:25:59.049Z,9.05
2019-03-22T00:27:15.933Z,9.33
2019-03-22T00:28:14.178Z,8.25
2019-03-22T00:29:20.339Z,9.38
2019-03-22T00:30:26.280Z,8.55
2019-03-22T00:31:31.748Z,8.88
2019-03-22T00:32:37.270Z,8.70
2019-03-22T00:33:42.762Z,8.63
2019-03-22T00:34:48.289Z,8.90
2019-03-22T00:35:55.386Z,9.30
2019-03-22T00:37:00.838Z,9.20
2019-03-22T00:38:06.400Z,8.75
2019-03-22T00:39:11.979Z,8.93
2019-03-22T00:40:17.533Z,9.18
2019-03-22T00:41:22.957Z,9.13
2019-03-22T00:42:28.729Z,8.65
2019-03-22T00:43:34.269Z,9.10
2019-03-22T00:44:40.578Z,8.40
2019-03-22T00:45:46.740Z,8.98
2019-03-22T00:46:53.949Z,9.13
2019-03-22T00:48:01.663Z,9.30
2019-03-22T00:49:07.908Z,9.23
2019-03-22T00:50:15.078Z,8.93
2019-03-22T00:51:22.069Z,9.10
2019-03-22T00:52:28.499Z,8.60
2019-03-22T00:53:34.669Z,8.53
2019-03-22T00:54:41.518Z,8.75
2019-03-22T00:55:47.655Z,8.95
2019-03-22T00:56:55.239Z,8.65
2019-03-22T00:58:01.798Z,8.30
2019-03-22T00:59:08.179Z,8.88
2019-03-22T01:00:16.120Z,8.20
2019-03-22T01:01:21.890Z,8.70
2019-03-22T01:02:27.465Z,8.73
2019-03-22T01:03:33.051Z,9.15
2019-03-22T01:04:38.636Z,8.10
2019-03-22T01:05:44.140Z,8.45
2019-03-22T01:06:50.219Z,8.95
2019-03-22T01:07:56.628Z,9.10
2019-03-22T01:09:03.020Z,9.55
2019-03-22T01:10:15.619Z,9.20
2019-03-22T01:11:21.591Z,9.50
2019-03-22T01:12:27.549Z,9.03
2019-03-22T01:13:33.928Z,10.58
2019-03-22T01:14:40.883Z,9.63
2019-03-22T01:15:47.490Z,8.90
2019-03-22T01:16:53.725Z,9.43
2019-03-22T01:17:59.876Z,9.25
2019-03-22T01:19:06.524Z,9.65
2019-03-22T01:20:13.758Z,9.38
2019-03-22T01:21:21.752Z,9.58
2019-03-22T01:22:28.546Z,10.25
2019-03-22T01:23:35.115Z,9.58
2019-03-22T01:24:41.577Z,9.88
2019-03-22T01:25:48.513Z,10.65
2019-03-22T01:26:55.404Z,9.83
2019-03-22T01:28:02.406Z,9.75
2019-03-22T01:29:08.346Z,10.45
2019-03-22T01:30:20.933Z,9.78
2019-03-22T01:31:26.879Z,10.45
2019-03-22T01:32:32.667Z,10.53
2019-03-22T01:33:38.157Z,10.00
2019-03-22T01:34:43.871Z,10.60
2019-03-22T01:35:49.496Z,10.23
2019-03-22T01:36:55.294Z,10.53
2019-03-22T01:38:01.602Z,10.38
2019-03-22T01:39:07.927Z,10.40
2019-03-22T01:40:15.406Z,10.43
2019-03-22T01:41:21.346Z,10.55
2019-03-22T01:42:26.924Z,10.25
2019-03-22T01:43:53.567Z,10.90
2019-03-22T01:44:59.205Z,10.23
2019-03-22T01:46:05.467Z,10.53
2019-03-22T01:47:14.018Z,10.58
2019-03-22T01:48:20.314Z,10.82
2019-03-22T01:49:26.778Z,9.88
2019-03-22T01:50:33.367Z,11.03
2019-03-22T01:51:39.872Z,10.60
2019-03-22T01:52:46.159Z,10.88
2019-03-22T01:53:52.170Z,10.95
2019-03-22T01:55:00.667Z,10.65
2019-03-22T01:56:07.209Z,10.20
2019-03-22T01:57:14.068Z,10.10
2019-03-22T01:58:20.923Z,10.90
2019-03-22T01:59:27.720Z,10.95
2019-03-22T02:00:35.651Z,9.68
2019-03-22T02:01:41.243Z,10.78
2019-03-22T02:02:46.838Z,10.72
2019-03-22T02:03:52.901Z,10.48
2019-03-22T02:04:59.720Z,10.40
2019-03-22T02:06:05.581Z,10.70
2019-03-22T02:07:11.390Z,10.43
2019-03-22T02:08:17.442Z,10.80
2019-03-22T02:09:25.851Z,10.48
2019-03-22T02:10:31.418Z,9.95
2019-03-22T02:11:37.219Z,10.43
2019-03-22T02:12:44.641Z,11.10
2019-03-22T02:13:50.531Z,10.90
2019-03-22T02:14:58.095Z,10.30
2019-03-22T02:16:05.273Z,10.85
2019-03-22T02:17:11.762Z,10.20
2019-03-22T02:18:18.321Z,10.40
2019-03-22T02:19:24.883Z,10.38
2019-03-22T02:20:31.667Z,9.95
2019-03-22T02:21:37.897Z,10.55
2019-03-22T02:22:44.666Z,10.35
2019-03-22T02:23:52.239Z,10.10
2019-03-22T02:24:58.684Z,10.43
2019-03-22T02:26:05.987Z,10.32
2019-03-22T02:27:12.474Z,10.20
2019-03-22T02:28:18.867Z,10.45
2019-03-22T02:29:25.474Z,10.05
2019-03-22T02:30:31.747Z,8.70
2019-03-22T02:31:37.280Z,10.82
2019-03-22T02:32:42.785Z,10.15
2019-03-22T02:33:49.040Z,10.08
2019-03-22T02:34:56.470Z,9.90
2019-03-22T02:36:02.260Z,10.63
2019-03-22T02:37:08.160Z,9.58
2019-03-22T02:38:14.391Z,10.30
2019-03-22T02:39:20.034Z,9.48
2019-03-22T02:40:26.140Z,9.93
2019-03-22T02:41:31.979Z,10.03
2019-03-22T02:42:37.590Z,9.58
2019-03-22T02:43:44.751Z,9.95
2019-03-22T02:44:50.245Z,10.28
2019-03-22T02:45:55.809Z,9.53
2019-03-22T02:47:02.180Z,9.58
2019-03-22T02:48:09.768Z,10.15
2019-03-22T02:49:18.070Z,9.75
2019-03-22T02:50:24.277Z,10.25
2019-03-22T02:51:30.218Z,10.23
2019-03-22T02:52:36.247Z,9.03
2019-03-22T02:53:42.670Z,8.80
2019-03-22T02:54:49.699Z,9.70
2019-03-22T02:55:56.931Z,9.88
2019-03-22T02:57:02.791Z,9.50
2019-03-22T02:58:20.370Z,8.68
2019-03-22T02:59:16.904Z,9.45
2019-03-22T03:00:22.757Z,9.43
2019-03-22T03:01:28.329Z,9.95
2019-03-22T03:02:34.099Z,9.25
2019-03-22T03:03:39.640Z,9.30
2019-03-22T03:04:45.366Z,9.70
2019-03-22T03:05:51.441Z,9.13
2019-03-22T03:06:57.030Z,8.73
2019-03-22T03:08:02.621Z,9.10
2019-03-22T03:09:08.500Z,9.08
2019-03-22T03:10:16.005Z,9.15
2019-03-22T03:11:23.432Z,9.63
2019-03-22T03:12:29.428Z,9.30
2019-03-22T03:13:35.141Z,9.10
2019-03-22T03:14:41.052Z,9.20
2019-03-22T03:15:47.260Z,9.60
2019-03-22T03:16:53.430Z,9.48
2019-03-22T03:18:01.032Z,9.35
2019-03-22T03:19:07.060Z,9.05
2019-03-22T03:20:15.919Z,8.83
2019-03-22T03:21:22.271Z,8.88
2019-03-22T03:22:29.328Z,9.28
2019-03-22T03:23:35.849Z,8.70
2019-03-22T03:24:42.440Z,8.65
2019-03-22T03:25:49.313Z,9.13
2019-03-22T03:26:55.951Z,8.83
2019-03-22T03:28:02.760Z,8.20
2019-03-22T03:29:11.050Z,9.05
2019-03-22T03:30:22.323Z,8.63
2019-03-22T03:31:29.691Z,8.90
2019-03-22T03:32:35.549Z,8.10
2019-03-22T03:33:43.260Z,8.73
2019-03-22T03:34:49.313Z,8.98
2019-03-22T03:35:55.549Z,8.50
2019-03-22T03:37:01.548Z,8.00
2019-03-22T03:38:09.260Z,8.75
2019-03-22T03:39:14.739Z,8.30
2019-03-22T03:40:20.298Z,8.63
2019-03-22T03:41:25.819Z,8.00
2019-03-22T03:42:31.277Z,7.83
2019-03-22T03:43:37.436Z,7.80
2019-03-22T03:44:43.389Z,8.23
2019-03-22T03:45:49.279Z,7.80
2019-03-22T03:46:56.042Z,8.25
2019-03-22T03:48:04.544Z,7.70
2019-03-22T03:49:11.190Z,8.30
2019-03-22T03:50:17.797Z,8.30
2019-03-22T03:51:25.570Z,7.50
2019-03-22T03:52:32.321Z,7.35
2019-03-22T03:53:38.839Z,7.80
2019-03-22T03:54:45.093Z,7.72
2019-03-22T03:55:51.900Z,8.18
2019-03-22T03:56:59.271Z,8.20
2019-03-22T03:58:06.025Z,7.50
2019-03-22T03:59:13.919Z,7.75
2019-03-22T04:00:20.640Z,8.15
2019-03-22T04:01:26.890Z,7.60
2019-03-22T04:02:32.393Z,7.33
2019-03-22T04:03:38.149Z,6.80
2019-03-22T04:04:44.039Z,8.50
2019-03-22T04:05:49.556Z,7.58
2019-03-22T04:06:56.882Z,8.05
2019-03-22T04:08:02.641Z,7.83
2019-03-22T04:09:09.142Z,7.60
2019-03-22T04:10:16.546Z,7.90
2019-03-22T04:11:24.526Z,7.45
2019-03-22T04:12:32.560Z,7.45
2019-03-22T04:13:39.046Z,7.92
2019-03-22T04:14:46.577Z,7.85
2019-03-22T04:15:52.612Z,8.05
2019-03-22T04:16:59.197Z,7.45
2019-03-22T04:18:05.671Z,7.70
2019-03-22T04:19:12.482Z,7.47
2019-03-22T04:20:18.511Z,6.95
2019-03-22T04:21:24.654Z,7.10
2019-03-22T04:22:31.401Z,7.40
2019-03-22T04:23:38.107Z,7.33
2019-03-22T04:24:44.431Z,7.78
2019-03-22T04:25:52.318Z,7.12
2019-03-22T04:26:58.720Z,7.03
2019-03-22T04:28:06.401Z,7.40
2019-03-22T04:29:12.351Z,7.30
2019-03-22T04:30:20.071Z,7.55
2019-03-22T04:31:26.408Z,6.58
2019-03-22T04:32:31.932Z,7.20
2019-03-22T04:33:38.110Z,6.97
2019-03-22T04:34:43.777Z,6.72
2019-03-22T04:35:49.939Z,7.15
2019-03-22T04:36:56.380Z,6.58
2019-03-22T04:38:02.283Z,6.80
2019-03-22T04:39:10.243Z,6.87
2019-03-22T04:40:27.834Z,7.30
2019-03-22T04:41:33.311Z,6.78
2019-03-22T04:42:40.710Z,7.22
2019-03-22T04:43:48.561Z,6.90
2019-03-22T04:44:54.470Z,6.35
2019-03-22T04:46:00.324Z,6.67
2019-03-22T04:47:06.138Z,7.15
2019-03-22T04:48:25.777Z,6.00
2019-03-22T04:49:31.700Z,6.37
2019-03-22T04:50:40.121Z,7.00
2019-03-22T04:51:46.895Z,6.85
2019-03-22T04:52:53.790Z,6.45
2019-03-22T04:54:00.311Z,6.40
2019-03-22T04:55:06.508Z,6.03
2019-03-22T04:56:13.880Z,6.65
2019-03-22T04:57:20.281Z,6.33
2019-03-22T04:58:26.591Z,6.15
2019-03-22T04:59:31.627Z,6.35
2019-03-22T05:00:38.591Z,6.55
2019-03-22T05:01:44.633Z,5.87
2019-03-22T05:03:14.980Z,6.47
2019-03-22T05:04:32.058Z,6.12
2019-03-22T05:05:47.631Z,6.22
2019-03-22T05:06:53.839Z,6.17
2019-03-22T05:07:59.481Z,6.30
2019-03-22T05:09:07.969Z,6.00
2019-03-22T05:10:15.006Z,5.85
2019-03-22T05:11:20.972Z,5.55
2019-03-22T05:12:26.669Z,5.83
2019-03-22T05:13:32.772Z,6.00
2019-03-22T05:14:39.571Z,5.62
2019-03-22T05:15:45.478Z,5.67
2019-03-22T05:16:52.842Z,5.33
2019-03-22T05:18:00.991Z,5.70
2019-03-22T05:19:07.602Z,5.78
2019-03-22T05:20:15.230Z,5.92
2019-03-22T05:21:21.719Z,5.67
2019-03-22T05:22:28.433Z,5.85
2019-03-22T05:23:35.471Z,5.78
2019-03-22T05:24:41.951Z,5.35
2019-03-22T05:25:48.262Z,5.12
2019-03-22T05:26:55.772Z,5.55
2019-03-22T05:28:01.871Z,5.85
2019-03-22T05:29:07.910Z,5.40
2019-03-22T05:30:27.594Z,5.08
2019-03-22T05:31:52.263Z,4.92
2019-03-22T05:32:58.088Z,4.90
2019-03-22T05:34:04.019Z,5.40
2019-03-22T05:35:10.058Z,5.12
2019-03-22T05:36:16.001Z,5.55
2019-03-22T05:37:23.742Z,4.60
2019-03-22T05:38:29.742Z,5.05
2019-03-22T05:39:35.482Z,4.55
2019-03-22T05:40:41.043Z,5.20
2019-03-22T05:41:46.552Z,4.70
2019-03-22T05:42:52.602Z,4.60
2019-03-22T05:43:58.632Z,4.90
2019-03-22T05:45:06.114Z,4.45
2019-03-22T05:46:12.184Z,4.78
2019-03-22T05:47:20.239Z,5.08
2019-03-22T05:48:26.800Z,5.53
2019-03-22T05:49:34.936Z,4.30
2019-03-22T05:50:41.291Z,4.83
2019-03-22T05:51:48.401Z,4.60
2019-03-22T05:52:55.073Z,4.92
2019-03-22T05:54:01.393Z,4.78
2019-03-22T05:55:08.479Z,4.97
2019-03-22T05:56:14.649Z,4.60
2019-03-22T05:57:21.247Z,4.67
2019-03-22T05:58:29.316Z,4.85
2019-03-22T05:59:42.365Z,4.17
2019-03-22T06:00:43.457Z,4.80
2019-03-22T06:01:49.086Z,4.40
2019-03-22T06:02:56.147Z,4.33
2019-03-22T06:04:01.695Z,4.40
2019-03-22T06:05:08.496Z,4.78
2019-03-22T06:06:16.083Z,4.33
2019-03-22T06:07:21.757Z,4.60
2019-03-22T06:08:28.576Z,4.55
2019-03-22T06:09:34.370Z,4.95
2019-03-22T06:10:41.306Z,4.33
2019-03-22T06:11:47.355Z,4.10
2019-03-22T06:12:56.652Z,4.80
2019-03-22T06:14:02.147Z,4.42
2019-03-22T06:15:11.029Z,4.17
2019-03-22T06:16:16.789Z,4.67
2019-03-22T06:17:23.133Z,4.40
2019-03-22T06:18:29.140Z,4.22
2019-03-22T06:19:35.677Z,4.45
2019-03-22T06:20:42.724Z,4.20
2019-03-22T06:21:50.051Z,4.17
2019-03-22T06:22:56.427Z,4.97
2019-03-22T06:24:02.701Z,4.65
2019-03-22T06:25:09.445Z,4.40
2019-03-22T06:26:16.279Z,4.40
2019-03-22T06:27:23.045Z,4.50
2019-03-22T06:28:29.069Z,4.37
2019-03-22T06:29:35.398Z,4.40
2019-03-22T06:30:43.537Z,4.20
2019-03-22T06:31:48.997Z,4.17
2019-03-22T06:32:56.987Z,4.40
2019-03-22T06:34:10.598Z,3.65
2019-03-22T06:35:35.595Z,3.85
2019-03-22T06:36:41.728Z,4.37
2019-03-22T06:37:47.518Z,4.08
2019-03-22T06:38:53.836Z,4.45
2019-03-22T06:39:59.824Z,4.15
2019-03-22T06:41:07.837Z,4.03
2019-03-22T06:42:13.836Z,4.67
2019-03-22T06:43:20.851Z,4.00
2019-03-22T06:44:26.743Z,4.12
2019-03-22T06:45:34.589Z,3.90
2019-03-22T06:46:40.917Z,4.28
2019-03-22T06:47:47.285Z,4.10
2019-03-22T06:48:55.758Z,4.30
2019-03-22T06:50:02.197Z,5.35
2019-03-22T06:51:08.858Z,7.12
2019-03-22T06:52:15.226Z,5.90
2019-03-22T06:53:21.373Z,6.62
2019-03-22T06:54:31.820Z,6.15
2019-03-22T06:55:35.485Z,5.22
2019-03-22T07:00:17.063Z,4.62
2019-03-22T07:01:22.659Z,4.78
2019-03-22T07:02:30.181Z,4.53
2019-03-22T07:03:35.838Z,4.75
2019-03-22T07:04:41.818Z,4.72
2019-03-22T07:05:47.658Z,4.00
2019-03-22T07:06:53.746Z,4.17
2019-03-22T07:08:01.218Z,4.50
2019-03-22T07:09:08.779Z,4.78
2019-03-22T07:13:47.520Z,4.33
2019-03-22T07:14:53.781Z,4.58
2019-03-22T07:19:32.939Z,4.65
2019-03-22T07:20:38.899Z,4.65
2019-03-22T07:25:18.820Z,5.03
2019-03-22T07:26:24.622Z,6.35
2019-03-22T07:27:32.819Z,5.25
2019-03-22T07:28:39.140Z,5.87
2019-03-22T07:29:46.387Z,5.05
2019-03-22T07:30:52.535Z,6.00
2019-03-22T07:31:58.263Z,5.58
2019-03-22T07:33:03.920Z,5.50
2019-03-22T07:34:09.859Z,5.03
2019-03-22T07:35:15.699Z,5.45
2019-03-22T07:36:21.539Z,5.55
2019-03-22T07:37:27.188Z,5.58
2019-03-22T07:42:08.106Z,5.30
2019-03-22T07:43:13.640Z,5.05
2019-03-22T07:44:19.140Z,4.80
2019-03-22T07:45:25.380Z,4.55
2019-03-22T07:46:31.748Z,4.67
2019-03-22T07:47:37.899Z,4.47
2019-03-22T07:48:44.400Z,4.87
2019-03-22T07:53:24.000Z,4.58
2019-03-22T07:54:30.028Z,4.53
2019-03-22T07:55:36.487Z,4.75
2019-03-22T07:56:43.099Z,5.62
2019-03-22T07:57:51.070Z,5.53
2019-03-22T07:58:57.864Z,7.20
2019-03-22T08:00:06.301Z,8.10
2019-03-22T08:01:13.321Z,8.58
2019-03-22T08:02:19.148Z,8.00
2019-03-22T08:03:25.121Z,7.72
2019-03-22T08:04:30.941Z,8.53
2019-03-22T08:05:36.803Z,9.65
2019-03-22T08:06:42.620Z,9.08
2019-03-22T08:07:48.380Z,10.25
2019-03-22T08:08:54.280Z,10.65
2019-03-22T08:10:00.297Z,11.53
2019-03-22T08:11:06.121Z,12.35
2019-03-22T08:12:12.049Z,11.75
2019-03-22T08:13:18.082Z,12.55
2019-03-22T08:14:24.041Z,13.15
2019-03-22T08:15:31.905Z,13.58
2019-03-22T08:16:37.959Z,13.50
2019-03-22T08:17:43.967Z,13.65
2019-03-22T08:18:51.261Z,13.68
2019-03-22T08:19:57.968Z,14.13
2019-03-22T08:21:03.862Z,14.53
2019-03-22T08:22:11.163Z,13.50
2019-03-22T08:23:23.216Z,14.45
2019-03-22T08:24:28.962Z,13.45
2019-03-22T08:25:35.179Z,13.62
2019-03-22T08:26:42.312Z,14.20
2019-03-22T08:27:49.343Z,12.55
2019-03-22T08:28:55.733Z,13.50
